DAAJ/DJG METAR and TAF weather

Enter ICAO airport designator
Station Type Date Time Source
DAAJ METAR 2019/08/19 22:00 UTC NOAA

DAAJ 192200Z 04007KT CAVOK 30/05 Q1016


Station Type Date Time Source
DAAJ Decoded METAR 2019/08/19 22:00 UTC NOAA

Djanet, Algeria (DAAJ) 24-33N 009-28E 1054M
Aug 19, 2019 - 06:00 PM EDT / 2019.08.19 2200 UTC
Wind: from the NE (040 degrees) at 8 MPH (7 KT):0
Visibility: greater than 7 mile(s):0
Temperature: 86 F (30 C)
Dew Point: 41 F (5 C)
Relative Humidity: 20%
Pressure (altimeter): 30.00 in. Hg (1016 hPa)
ob: DAAJ 192200Z 04007KT CAVOK 30/05 Q1016
cycle: 22

Station Type Date Time Source
DAAJ TAF 2019/08/19 18:33 UTC NOAA

TAF DAAJ 191700Z 1918/2018 08010KT CAVOK

Example: see airport list